sensor_id;sensor_type;location;lat;lon;timestamp;temperature;humidity
4896;DHT22;2463;49.948;8.472;2022-09-09T00:00:44;18.00;99.90
4896;DHT22;2463;49.948;8.472;2022-09-09T00:03:17;18.00;99.90
4896;DHT22;2463;49.948;8.472;2022-09-09T00:08:21;17.90;99.90
4896;DHT22;2463;49.948;8.472;2022-09-09T00:10:56;17.80;99.90
4896;DHT22;2463;49.948;8.472;2022-09-09T00:13:38;17.70;99.90
4896;DHT22;2463;49.948;8.472;2022-09-09T00:16:36;17.70;99.90
4896;DHT22;2463;49.948;8.472;2022-09-09T00:24:51;17.50;99.90
4896;DHT22;2463;49.948;8.472;2022-09-09T00:27:40;17.40;99.90
4896;DHT22;2463;49.948;8.472;2022-09-09T00:30:15;17.40;99.90
4896;DHT22;2463;49.948;8.472;2022-09-09T00:32:50;17.30;99.90
4896;DHT22;2463;49.948;8.472;2022-09-09T00:35:30;17.30;99.90
4896;DHT22;2463;49.948;8.472;2022-09-09T00:38:13;17.10;99.90
4896;DHT22;2463;49.948;8.472;2022-09-09T00:43:26;16.90;99.90
4896;DHT22;2463;49.948;8.472;2022-09-09T00:48:38;16.80;99.90
4896;DHT22;2463;49.948;8.472;2022-09-09T00:51:21;16.80;99.90
4896;DHT22;2463;49.948;8.472;2022-09-09T00:54:04;16.70;99.90
4896;DHT22;2463;49.948;8.472;2022-09-09T00:56:45;16.70;99.90
4896;DHT22;2463;49.948;8.472;2022-09-09T00:59:28;16.70;99.90
4896;DHT22;2463;49.948;8.472;2022-09-09T01:01:58;16.70;99.90
4896;DHT22;2463;49.948;8.472;2022-09-09T01:04:32;16.70;99.90
4896;DHT22;2463;49.948;8.472;2022-09-09T01:07:16;16.70;99.90
4896;DHT22;2463;49.948;8.472;2022-09-09T01:09:57;16.60;99.90
4896;DHT22;2463;49.948;8.472;2022-09-09T01:12:43;16.60;99.90
4896;DHT22;2463;49.948;8.472;2022-09-09T01:15:25;16.60;99.90
4896;DHT22;2463;49.948;8.472;2022-09-09T01:18:05;16.60;99.90
4896;DHT22;2463;49.948;8.472;2022-09-09T01:21:09;16.50;99.90
4896;DHT22;2463;49.948;8.472;2022-09-09T01:28:55;16.50;99.90
4896;DHT22;2463;49.948;8.472;2022-09-09T01:31:27;16.50;99.90
4896;DHT22;2463;49.948;8.472;2022-09-09T01:33:55;16.50;99.90
4896;DHT22;2463;49.948;8.472;2022-09-09T01:36:34;16.50;99.90
4896;DHT22;2463;49.948;8.472;2022-09-09T01:39:05;16.30;99.90
4896;DHT22;2463;49.948;8.472;2022-09-09T01:41:31;16.50;99.90
4896;DHT22;2463;49.948;8.472;2022-09-09T01:43:58;16.40;99.90
4896;DHT22;2463;49.948;8.472;2022-09-09T01:46:25;16.40;99.90
4896;DHT22;2463;49.948;8.472;2022-09-09T01:48:53;16.40;99.90
4896;DHT22;2463;49.948;8.472;2022-09-09T01:51:20;16.40;99.90
4896;DHT22;2463;49.948;8.472;2022-09-09T01:53:47;16.40;99.90
4896;DHT22;2463;49.948;8.472;2022-09-09T02:02:11;16.30;99.90
4896;DHT22;2463;49.948;8.472;2022-09-09T02:04:42;16.30;99.90
4896;DHT22;2463;49.948;8.472;2022-09-09T02:07:37;16.30;99.90
4896;DHT22;2463;49.948;8.472;2022-09-09T02:10:15;16.30;99.90
4896;DHT22;2463;49.948;8.472;2022-09-09T02:12:47;16.30;99.90
4896;DHT22;2463;49.948;8.472;2022-09-09T02:15:24;16.20;99.90
4896;DHT22;2463;49.948;8.472;2022-09-09T02:17:54;16.10;99.90
4896;DHT22;2463;49.948;8.472;2022-09-09T02:20:24;16.10;99.90
4896;DHT22;2463;49.948;8.472;2022-09-09T02:22:53;16.20;99.90
4896;DHT22;2463;49.948;8.472;2022-09-09T02:25:23;16.20;99.90
4896;DHT22;2463;49.948;8.472;2022-09-09T02:27:51;16.30;99.90
4896;DHT22;2463;49.948;8.472;2022-09-09T02:30:19;16.30;99.90
4896;DHT22;2463;49.948;8.472;2022-09-09T02:32:48;16.30;99.90
4896;DHT22;2463;49.948;8.472;2022-09-09T02:35:20;16.40;99.90
4896;DHT22;2463;49.948;8.472;2022-09-09T02:37:49;16.40;99.90
4896;DHT22;2463;49.948;8.472;2022-09-09T02:40:17;16.40;99.90
4896;DHT22;2463;49.948;8.472;2022-09-09T02:42:46;16.50;99.90
4896;DHT22;2463;49.948;8.472;2022-09-09T02:45:16;16.40;99.90
4896;DHT22;2463;49.948;8.472;2022-09-09T02:50:23;16.50;99.90
4896;DHT22;2463;49.948;8.472;2022-09-09T02:58:18;16.50;99.90
4896;DHT22;2463;49.948;8.472;2022-09-09T03:00:47;16.50;99.90
4896;DHT22;2463;49.948;8.472;2022-09-09T03:03:14;16.60;99.90
4896;DHT22;2463;49.948;8.472;2022-09-09T03:05:43;16.50;99.90
4896;DHT22;2463;49.948;8.472;2022-09-09T03:08:11;16.50;99.90
4896;DHT22;2463;49.948;8.472;2022-09-09T03:10:37;16.50;99.90
4896;DHT22;2463;49.948;8.472;2022-09-09T03:13:04;16.50;99.90
4896;DHT22;2463;49.948;8.472;2022-09-09T03:15:32;16.50;99.90
4896;DHT22;2463;49.948;8.472;2022-09-09T03:18:00;16.50;99.90
4896;DHT22;2463;49.948;8.472;2022-09-09T03:20:28;16.50;99.90
4896;DHT22;2463;49.948;8.472;2022-09-09T03:22:55;16.50;99.90
4896;DHT22;2463;49.948;8.472;2022-09-09T03:25:22;16.50;99.90
4896;DHT22;2463;49.948;8.472;2022-09-09T03:27:53;16.50;99.90
4896;DHT22;2463;49.948;8.472;2022-09-09T03:30:22;16.30;99.90
4896;DHT22;2463;49.948;8.472;2022-09-09T03:32:49;16.20;99.90
4896;DHT22;2463;49.948;8.472;2022-09-09T03:35:16;16.20;99.90
4896;DHT22;2463;49.948;8.472;2022-09-09T03:37:43;16.10;99.90
4896;DHT22;2463;49.948;8.472;2022-09-09T03:40:10;16.20;99.90
4896;DHT22;2463;49.948;8.472;2022-09-09T03:42:38;16.20;99.90
4896;DHT22;2463;49.948;8.472;2022-09-09T03:45:06;16.20;99.90
4896;DHT22;2463;49.948;8.472;2022-09-09T03:47:34;16.20;99.90
4896;DHT22;2463;49.948;8.472;2022-09-09T03:50:01;16.30;99.90
4896;DHT22;2463;49.948;8.472;2022-09-09T03:52:27;16.30;99.90
4896;DHT22;2463;49.948;8.472;2022-09-09T03:54:54;16.40;99.90
4896;DHT22;2463;49.948;8.472;2022-09-09T03:57:21;16.40;99.90
4896;DHT22;2463;49.948;8.472;2022-09-09T03:59:48;16.40;99.90
4896;DHT22;2463;49.948;8.472;2022-09-09T04:02:14;16.40;99.90
4896;DHT22;2463;49.948;8.472;2022-09-09T04:04:42;16.50;99.90
4896;DHT22;2463;49.948;8.472;2022-09-09T04:07:08;16.50;99.90
4896;DHT22;2463;49.948;8.472;2022-09-09T04:09:35;16.50;99.90
4896;DHT22;2463;49.948;8.472;2022-09-09T04:12:02;16.60;99.90
4896;DHT22;2463;49.948;8.472;2022-09-09T04:14:29;16.60;99.90
4896;DHT22;2463;49.948;8.472;2022-09-09T04:16:55;16.60;99.90
4896;DHT22;2463;49.948;8.472;2022-09-09T04:19:23;16.60;99.90
4896;DHT22;2463;49.948;8.472;2022-09-09T04:21:50;16.70;99.90
4896;DHT22;2463;49.948;8.472;2022-09-09T04:24:18;16.70;99.90
4896;DHT22;2463;49.948;8.472;2022-09-09T04:26:45;16.70;99.90
4896;DHT22;2463;49.948;8.472;2022-09-09T04:29:12;16.80;99.90
4896;DHT22;2463;49.948;8.472;2022-09-09T04:31:38;16.80;99.90
4896;DHT22;2463;49.948;8.472;2022-09-09T04:34:11;16.70;99.90
4896;DHT22;2463;49.948;8.472;2022-09-09T04:36:38;16.70;99.90
4896;DHT22;2463;49.948;8.472;2022-09-09T04:39:07;16.70;99.90
4896;DHT22;2463;49.948;8.472;2022-09-09T04:41:33;16.60;99.90
4896;DHT22;2463;49.948;8.472;2022-09-09T04:44:01;16.50;99.90
4896;DHT22;2463;49.948;8.472;2022-09-09T04:46:27;16.40;99.90
4896;DHT22;2463;49.948;8.472;2022-09-09T04:48:54;16.40;99.90
4896;DHT22;2463;49.948;8.472;2022-09-09T04:51:21;16.20;99.90
4896;DHT22;2463;49.948;8.472;2022-09-09T04:53:48;16.20;99.90
4896;DHT22;2463;49.948;8.472;2022-09-09T04:56:17;16.20;99.90
4896;DHT22;2463;49.948;8.472;2022-09-09T04:58:44;16.20;99.90
4896;DHT22;2463;49.948;8.472;2022-09-09T05:01:17;16.20;99.90
4896;DHT22;2463;49.948;8.472;2022-09-09T05:03:45;16.20;99.90
4896;DHT22;2463;49.948;8.472;2022-09-09T05:06:17;16.30;99.90
4896;DHT22;2463;49.948;8.472;2022-09-09T05:08:44;16.30;99.90
4896;DHT22;2463;49.948;8.472;2022-09-09T05:11:24;16.30;99.90
4896;DHT22;2463;49.948;8.472;2022-09-09T05:13:53;16.30;99.90
4896;DHT22;2463;49.948;8.472;2022-09-09T05:16:20;16.20;99.90
4896;DHT22;2463;49.948;8.472;2022-09-09T05:18:47;16.10;99.90
4896;DHT22;2463;49.948;8.472;2022-09-09T05:21:16;16.10;99.90
4896;DHT22;2463;49.948;8.472;2022-09-09T05:23:45;16.10;99.90
4896;DHT22;2463;49.948;8.472;2022-09-09T05:26:16;16.10;99.90
4896;DHT22;2463;49.948;8.472;2022-09-09T05:28:44;16.10;99.90
4896;DHT22;2463;49.948;8.472;2022-09-09T05:31:12;16.10;99.90
4896;DHT22;2463;49.948;8.472;2022-09-09T05:33:41;16.10;99.90
4896;DHT22;2463;49.948;8.472;2022-09-09T05:36:14;16.20;99.90
4896;DHT22;2463;49.948;8.472;2022-09-09T05:38:41;16.10;99.90
4896;DHT22;2463;49.948;8.472;2022-09-09T05:41:09;16.10;99.90
4896;DHT22;2463;49.948;8.472;2022-09-09T05:43:38;16.10;99.90
4896;DHT22;2463;49.948;8.472;2022-09-09T05:46:13;16.10;99.90
4896;DHT22;2463;49.948;8.472;2022-09-09T05:48:42;16.10;99.90
4896;DHT22;2463;49.948;8.472;2022-09-09T05:51:11;16.10;99.90
4896;DHT22;2463;49.948;8.472;2022-09-09T05:53:39;16.10;99.90
4896;DHT22;2463;49.948;8.472;2022-09-09T05:58:34;16.10;99.90
4896;DHT22;2463;49.948;8.472;2022-09-09T06:03:35;16.20;99.90
4896;DHT22;2463;49.948;8.472;2022-09-09T06:06:04;16.40;99.90
4896;DHT22;2463;49.948;8.472;2022-09-09T06:08:36;16.60;99.90
4896;DHT22;2463;49.948;8.472;2022-09-09T06:11:07;16.70;99.90
4896;DHT22;2463;49.948;8.472;2022-09-09T06:13:34;16.90;99.90
4896;DHT22;2463;49.948;8.472;2022-09-09T06:16:01;17.10;99.90
4896;DHT22;2463;49.948;8.472;2022-09-09T06:18:28;17.00;99.90
4896;DHT22;2463;49.948;8.472;2022-09-09T06:20:57;17.20;99.90
4896;DHT22;2463;49.948;8.472;2022-09-09T06:23:25;17.30;99.90
4896;DHT22;2463;49.948;8.472;2022-09-09T06:26:00;17.30;99.90
4896;DHT22;2463;49.948;8.472;2022-09-09T06:28:26;17.30;99.90
4896;DHT22;2463;49.948;8.472;2022-09-09T06:31:01;17.30;99.90
4896;DHT22;2463;49.948;8.472;2022-09-09T06:33:34;17.40;99.90
4896;DHT22;2463;49.948;8.472;2022-09-09T06:36:03;17.50;99.90
4896;DHT22;2463;49.948;8.472;2022-09-09T06:38:32;17.50;99.90
4896;DHT22;2463;49.948;8.472;2022-09-09T06:40:59;17.70;99.90
4896;DHT22;2463;49.948;8.472;2022-09-09T06:43:26;17.60;99.90
4896;DHT22;2463;49.948;8.472;2022-09-09T06:46:04;17.80;99.90
4896;DHT22;2463;49.948;8.472;2022-09-09T06:48:31;17.90;99.90
4896;DHT22;2463;49.948;8.472;2022-09-09T06:51:12;18.10;99.90
4896;DHT22;2463;49.948;8.472;2022-09-09T06:53:40;18.10;99.90
4896;DHT22;2463;49.948;8.472;2022-09-09T06:58:45;18.30;99.90
4896;DHT22;2463;49.948;8.472;2022-09-09T07:01:13;18.30;99.90
4896;DHT22;2463;49.948;8.472;2022-09-09T07:03:41;18.30;99.90
4896;DHT22;2463;49.948;8.472;2022-09-09T07:06:16;18.10;99.90
4896;DHT22;2463;49.948;8.472;2022-09-09T07:08:59;18.00;99.90
4896;DHT22;2463;49.948;8.472;2022-09-09T07:11:29;18.00;99.90
4896;DHT22;2463;49.948;8.472;2022-09-09T07:13:57;18.00;99.90
4896;DHT22;2463;49.948;8.472;2022-09-09T07:16:25;18.00;99.90
4896;DHT22;2463;49.948;8.472;2022-09-09T07:18:54;18.00;99.90
4896;DHT22;2463;49.948;8.472;2022-09-09T07:21:28;18.00;99.90
4896;DHT22;2463;49.948;8.472;2022-09-09T07:23:55;18.10;99.90
4896;DHT22;2463;49.948;8.472;2022-09-09T07:26:26;18.10;99.90
4896;DHT22;2463;49.948;8.472;2022-09-09T07:28:54;18.00;99.90
4896;DHT22;2463;49.948;8.472;2022-09-09T07:31:33;18.00;99.90
4896;DHT22;2463;49.948;8.472;2022-09-09T07:34:01;18.10;99.90
4896;DHT22;2463;49.948;8.472;2022-09-09T07:36:30;18.20;99.90
4896;DHT22;2463;49.948;8.472;2022-09-09T07:39:05;18.20;99.90
4896;DHT22;2463;49.948;8.472;2022-09-09T07:41:37;18.30;99.90
4896;DHT22;2463;49.948;8.472;2022-09-09T07:44:06;18.20;99.90
4896;DHT22;2463;49.948;8.472;2022-09-09T07:46:34;18.30;99.90
4896;DHT22;2463;49.948;8.472;2022-09-09T07:49:01;18.40;99.90
4896;DHT22;2463;49.948;8.472;2022-09-09T07:51:34;18.60;99.90
4896;DHT22;2463;49.948;8.472;2022-09-09T07:54:07;18.60;99.90
4896;DHT22;2463;49.948;8.472;2022-09-09T07:56:36;18.60;99.90
4896;DHT22;2463;49.948;8.472;2022-09-09T07:59:06;18.70;99.90
4896;DHT22;2463;49.948;8.472;2022-09-09T08:01:41;18.80;99.90
4896;DHT22;2463;49.948;8.472;2022-09-09T08:04:11;19.00;99.90
4896;DHT22;2463;49.948;8.472;2022-09-09T08:06:47;19.30;99.90
4896;DHT22;2463;49.948;8.472;2022-09-09T08:09:15;19.40;99.90
4896;DHT22;2463;49.948;8.472;2022-09-09T08:11:42;19.50;99.90
4896;DHT22;2463;49.948;8.472;2022-09-09T08:14:11;19.80;99.90
4896;DHT22;2463;49.948;8.472;2022-09-09T08:16:41;20.00;99.90
4896;DHT22;2463;49.948;8.472;2022-09-09T08:19:08;20.10;99.90
4896;DHT22;2463;49.948;8.472;2022-09-09T08:21:37;20.50;99.90
4896;DHT22;2463;49.948;8.472;2022-09-09T08:24:06;20.80;99.90
4896;DHT22;2463;49.948;8.472;2022-09-09T08:26:35;21.00;99.90
4896;DHT22;2463;49.948;8.472;2022-09-09T08:29:04;20.90;99.90
4896;DHT22;2463;49.948;8.472;2022-09-09T08:31:34;20.60;99.90
4896;DHT22;2463;49.948;8.472;2022-09-09T08:34:01;20.40;99.90
4896;DHT22;2463;49.948;8.472;2022-09-09T08:36:32;20.40;99.90
4896;DHT22;2463;49.948;8.472;2022-09-09T08:39:03;20.30;99.90
4896;DHT22;2463;49.948;8.472;2022-09-09T08:50:47;20.00;99.90
4896;DHT22;2463;49.948;8.472;2022-09-09T08:53:16;20.00;99.90
4896;DHT22;2463;49.948;8.472;2022-09-09T08:55:54;20.00;99.90
4896;DHT22;2463;49.948;8.472;2022-09-09T08:58:32;20.00;99.90
4896;DHT22;2463;49.948;8.472;2022-09-09T09:06:47;20.50;99.90
4896;DHT22;2463;49.948;8.472;2022-09-09T09:12:19;20.20;99.90
4896;DHT22;2463;49.948;8.472;2022-09-09T09:14:47;20.10;99.90
4896;DHT22;2463;49.948;8.472;2022-09-09T09:17:18;20.10;99.90
4896;DHT22;2463;49.948;8.472;2022-09-09T09:19:47;20.10;99.90
4896;DHT22;2463;49.948;8.472;2022-09-09T09:25:10;20.30;99.90
4896;DHT22;2463;49.948;8.472;2022-09-09T09:27:54;20.20;99.90
4896;DHT22;2463;49.948;8.472;2022-09-09T09:30:29;20.20;99.90
4896;DHT22;2463;49.948;8.472;2022-09-09T09:33:13;20.20;99.90
4896;DHT22;2463;49.948;8.472;2022-09-09T09:35:42;20.40;99.90
4896;DHT22;2463;49.948;8.472;2022-09-09T09:38:18;20.40;99.90
4896;DHT22;2463;49.948;8.472;2022-09-09T09:41:06;20.60;99.90
4896;DHT22;2463;49.948;8.472;2022-09-09T09:43:35;21.10;99.90
4896;DHT22;2463;49.948;8.472;2022-09-09T09:46:05;21.50;99.90
4896;DHT22;2463;49.948;8.472;2022-09-09T09:48:43;22.10;99.90
4896;DHT22;2463;49.948;8.472;2022-09-09T09:51:14;22.30;99.90
4896;DHT22;2463;49.948;8.472;2022-09-09T09:53:44;23.00;99.90
4896;DHT22;2463;49.948;8.472;2022-09-09T09:56:13;23.80;99.90
4896;DHT22;2463;49.948;8.472;2022-09-09T10:01:24;25.50;99.90
4896;DHT22;2463;49.948;8.472;2022-09-09T10:03:52;25.80;99.90
4896;DHT22;2463;49.948;8.472;2022-09-09T10:06:33;25.30;99.90
4896;DHT22;2463;49.948;8.472;2022-09-09T10:09:02;24.60;99.90
4896;DHT22;2463;49.948;8.472;2022-09-09T10:11:44;24.20;99.90
4896;DHT22;2463;49.948;8.472;2022-09-09T10:17:19;25.30;99.90
4896;DHT22;2463;49.948;8.472;2022-09-09T10:31:28;23.90;99.90
4896;DHT22;2463;49.948;8.472;2022-09-09T10:36:28;23.40;99.90
4896;DHT22;2463;49.948;8.472;2022-09-09T10:39:08;23.20;99.90
4896;DHT22;2463;49.948;8.472;2022-09-09T10:41:56;23.00;99.90
4896;DHT22;2463;49.948;8.472;2022-09-09T10:50:32;23.70;99.90
4896;DHT22;2463;49.948;8.472;2022-09-09T10:53:37;23.80;99.90
4896;DHT22;2463;49.948;8.472;2022-09-09T10:56:11;23.60;99.90
4896;DHT22;2463;49.948;8.472;2022-09-09T10:58:47;23.60;99.90
4896;DHT22;2463;49.948;8.472;2022-09-09T11:01:20;23.60;99.90
4896;DHT22;2463;49.948;8.472;2022-09-09T11:03:53;23.50;99.90
4896;DHT22;2463;49.948;8.472;2022-09-09T11:06:32;23.40;99.90
4896;DHT22;2463;49.948;8.472;2022-09-09T11:09:02;23.30;99.90
4896;DHT22;2463;49.948;8.472;2022-09-09T11:14:09;23.50;99.90
4896;DHT22;2463;49.948;8.472;2022-09-09T11:16:57;23.60;99.90
4896;DHT22;2463;49.948;8.472;2022-09-09T11:19:42;23.80;99.90
4896;DHT22;2463;49.948;8.472;2022-09-09T11:23:03;24.00;99.90
4896;DHT22;2463;49.948;8.472;2022-09-09T11:25:48;24.70;99.90
4896;DHT22;2463;49.948;8.472;2022-09-09T11:29:05;25.40;99.90
4896;DHT22;2463;49.948;8.472;2022-09-09T11:34:19;26.60;99.90
4896;DHT22;2463;49.948;8.472;2022-09-09T11:40:19;26.90;99.90
4896;DHT22;2463;49.948;8.472;2022-09-09T11:42:48;26.40;99.50
4896;DHT22;2463;49.948;8.472;2022-09-09T11:45:24;26.10;99.90
4896;DHT22;2463;49.948;8.472;2022-09-09T11:47:58;26.00;99.90
4896;DHT22;2463;49.948;8.472;2022-09-09T11:53:04;25.70;99.90
4896;DHT22;2463;49.948;8.472;2022-09-09T11:55:35;25.20;99.90
4896;DHT22;2463;49.948;8.472;2022-09-09T11:58:16;24.80;99.90
4896;DHT22;2463;49.948;8.472;2022-09-09T12:00:48;24.50;99.90
4896;DHT22;2463;49.948;8.472;2022-09-09T12:06:11;23.90;99.90
4896;DHT22;2463;49.948;8.472;2022-09-09T12:08:43;23.80;99.90
4896;DHT22;2463;49.948;8.472;2022-09-09T12:11:11;23.70;99.90
4896;DHT22;2463;49.948;8.472;2022-09-09T12:13:38;23.60;99.90
4896;DHT22;2463;49.948;8.472;2022-09-09T12:16:05;23.40;99.90
4896;DHT22;2463;49.948;8.472;2022-09-09T12:18:33;23.10;99.90
4896;DHT22;2463;49.948;8.472;2022-09-09T12:21:39;23.00;99.90
4896;DHT22;2463;49.948;8.472;2022-09-09T12:24:37;22.70;99.90
4896;DHT22;2463;49.948;8.472;2022-09-09T12:27:17;22.40;99.90
4896;DHT22;2463;49.948;8.472;2022-09-09T12:30:02;22.20;99.90
4896;DHT22;2463;49.948;8.472;2022-09-09T12:32:29;22.10;99.90
4896;DHT22;2463;49.948;8.472;2022-09-09T12:35:02;22.10;99.90
4896;DHT22;2463;49.948;8.472;2022-09-09T12:37:34;22.00;99.90
4896;DHT22;2463;49.948;8.472;2022-09-09T12:42:33;21.90;99.90
4896;DHT22;2463;49.948;8.472;2022-09-09T12:45:19;21.80;99.90
4896;DHT22;2463;49.948;8.472;2022-09-09T12:48:06;21.60;99.90
4896;DHT22;2463;49.948;8.472;2022-09-09T12:50:43;21.40;99.90
4896;DHT22;2463;49.948;8.472;2022-09-09T12:53:21;21.10;99.90
4896;DHT22;2463;49.948;8.472;2022-09-09T12:56:18;20.80;99.90
4896;DHT22;2463;49.948;8.472;2022-09-09T12:58:48;20.60;99.90
4896;DHT22;2463;49.948;8.472;2022-09-09T13:01:32;20.40;99.90
4896;DHT22;2463;49.948;8.472;2022-09-09T13:04:02;20.30;99.90
4896;DHT22;2463;49.948;8.472;2022-09-09T13:06:31;20.20;99.90
4896;DHT22;2463;49.948;8.472;2022-09-09T13:09:00;20.00;99.90
4896;DHT22;2463;49.948;8.472;2022-09-09T13:11:39;19.90;99.90
4896;DHT22;2463;49.948;8.472;2022-09-09T13:14:20;19.90;99.90
4896;DHT22;2463;49.948;8.472;2022-09-09T13:16:57;19.90;99.90
4896;DHT22;2463;49.948;8.472;2022-09-09T13:19:24;20.00;99.90
4896;DHT22;2463;49.948;8.472;2022-09-09T13:21:55;20.10;99.90
4896;DHT22;2463;49.948;8.472;2022-09-09T13:24:40;20.30;99.90
4896;DHT22;2463;49.948;8.472;2022-09-09T13:27:28;20.40;99.90
4896;DHT22;2463;49.948;8.472;2022-09-09T13:29:56;20.60;99.90
4896;DHT22;2463;49.948;8.472;2022-09-09T13:32:24;20.90;99.90
4896;DHT22;2463;49.948;8.472;2022-09-09T13:34:58;21.40;99.90
4896;DHT22;2463;49.948;8.472;2022-09-09T13:37:35;22.00;99.90
4896;DHT22;2463;49.948;8.472;2022-09-09T13:40:03;22.60;99.90
4896;DHT22;2463;49.948;8.472;2022-09-09T13:42:34;23.20;99.90
4896;DHT22;2463;49.948;8.472;2022-09-09T13:45:04;23.40;99.90
4896;DHT22;2463;49.948;8.472;2022-09-09T13:47:36;23.90;99.90
4896;DHT22;2463;49.948;8.472;2022-09-09T13:50:23;23.90;99.90
4896;DHT22;2463;49.948;8.472;2022-09-09T13:52:53;23.70;99.90
4896;DHT22;2463;49.948;8.472;2022-09-09T13:55:21;23.40;99.90
4896;DHT22;2463;49.948;8.472;2022-09-09T13:57:59;22.90;99.90
4896;DHT22;2463;49.948;8.472;2022-09-09T14:00:30;22.60;99.90
4896;DHT22;2463;49.948;8.472;2022-09-09T14:02:58;22.40;99.90
4896;DHT22;2463;49.948;8.472;2022-09-09T14:05:26;22.10;99.90
4896;DHT22;2463;49.948;8.472;2022-09-09T14:07:54;21.90;99.90
4896;DHT22;2463;49.948;8.472;2022-09-09T14:10:20;21.90;99.90
4896;DHT22;2463;49.948;8.472;2022-09-09T14:12:48;21.80;99.90
4896;DHT22;2463;49.948;8.472;2022-09-09T14:15:15;21.80;99.90
4896;DHT22;2463;49.948;8.472;2022-09-09T14:17:42;21.70;99.90
4896;DHT22;2463;49.948;8.472;2022-09-09T14:20:10;21.90;99.90
4896;DHT22;2463;49.948;8.472;2022-09-09T14:22:38;21.90;99.90
4896;DHT22;2463;49.948;8.472;2022-09-09T14:25:06;21.90;99.90
4896;DHT22;2463;49.948;8.472;2022-09-09T14:27:32;22.00;99.90
4896;DHT22;2463;49.948;8.472;2022-09-09T14:30:00;21.90;99.90
4896;DHT22;2463;49.948;8.472;2022-09-09T14:32:27;21.90;99.90
4896;DHT22;2463;49.948;8.472;2022-09-09T14:34:53;21.80;99.90
4896;DHT22;2463;49.948;8.472;2022-09-09T14:37:20;21.60;99.90
4896;DHT22;2463;49.948;8.472;2022-09-09T14:39:47;21.40;99.90
4896;DHT22;2463;49.948;8.472;2022-09-09T14:42:17;21.30;99.90
4896;DHT22;2463;49.948;8.472;2022-09-09T14:44:44;21.10;99.90
4896;DHT22;2463;49.948;8.472;2022-09-09T14:47:11;21.10;99.90
4896;DHT22;2463;49.948;8.472;2022-09-09T14:49:37;20.90;99.90
4896;DHT22;2463;49.948;8.472;2022-09-09T14:52:08;20.70;99.90
4896;DHT22;2463;49.948;8.472;2022-09-09T14:54:35;20.60;99.90
4896;DHT22;2463;49.948;8.472;2022-09-09T14:57:02;20.60;99.90
4896;DHT22;2463;49.948;8.472;2022-09-09T14:59:29;20.50;99.90
4896;DHT22;2463;49.948;8.472;2022-09-09T15:01:55;20.40;99.90
4896;DHT22;2463;49.948;8.472;2022-09-09T15:04:22;20.20;99.90
4896;DHT22;2463;49.948;8.472;2022-09-09T15:06:49;20.00;99.90
4896;DHT22;2463;49.948;8.472;2022-09-09T15:09:18;20.10;99.90
4896;DHT22;2463;49.948;8.472;2022-09-09T15:11:45;20.10;99.90
4896;DHT22;2463;49.948;8.472;2022-09-09T15:14:12;20.10;99.90
4896;DHT22;2463;49.948;8.472;2022-09-09T15:16:39;20.30;99.90
4896;DHT22;2463;49.948;8.472;2022-09-09T15:21:36;20.50;99.90
4896;DHT22;2463;49.948;8.472;2022-09-09T15:24:03;20.70;99.90
4896;DHT22;2463;49.948;8.472;2022-09-09T15:26:30;20.80;99.90
4896;DHT22;2463;49.948;8.472;2022-09-09T15:28:58;20.80;99.90
4896;DHT22;2463;49.948;8.472;2022-09-09T15:31:28;20.80;99.90
4896;DHT22;2463;49.948;8.472;2022-09-09T15:34:00;20.60;99.90
4896;DHT22;2463;49.948;8.472;2022-09-09T15:36:30;20.50;99.90
4896;DHT22;2463;49.948;8.472;2022-09-09T15:39:02;20.50;99.90
4896;DHT22;2463;49.948;8.472;2022-09-09T15:41:30;20.60;99.90
4896;DHT22;2463;49.948;8.472;2022-09-09T15:43:58;20.50;99.90
4896;DHT22;2463;49.948;8.472;2022-09-09T15:46:49;20.40;99.90
4896;DHT22;2463;49.948;8.472;2022-09-09T15:49:18;20.40;99.90
4896;DHT22;2463;49.948;8.472;2022-09-09T15:51:47;20.40;99.90
4896;DHT22;2463;49.948;8.472;2022-09-09T15:54:18;20.20;99.90
4896;DHT22;2463;49.948;8.472;2022-09-09T15:56:47;20.20;99.90
4896;DHT22;2463;49.948;8.472;2022-09-09T15:59:16;20.20;99.90
4896;DHT22;2463;49.948;8.472;2022-09-09T16:01:43;20.10;99.90
4896;DHT22;2463;49.948;8.472;2022-09-09T16:04:10;20.10;99.90
4896;DHT22;2463;49.948;8.472;2022-09-09T16:06:37;20.10;99.90
4896;DHT22;2463;49.948;8.472;2022-09-09T16:09:05;20.00;99.90
4896;DHT22;2463;49.948;8.472;2022-09-09T16:11:37;19.90;99.90
4896;DHT22;2463;49.948;8.472;2022-09-09T16:14:04;19.90;99.90
4896;DHT22;2463;49.948;8.472;2022-09-09T16:16:33;20.00;99.90
4896;DHT22;2463;49.948;8.472;2022-09-09T16:19:09;20.00;99.90
4896;DHT22;2463;49.948;8.472;2022-09-09T16:21:42;20.00;99.90
4896;DHT22;2463;49.948;8.472;2022-09-09T16:24:11;20.10;99.90
4896;DHT22;2463;49.948;8.472;2022-09-09T16:26:41;20.00;99.90
4896;DHT22;2463;49.948;8.472;2022-09-09T16:29:13;20.00;99.90
4896;DHT22;2463;49.948;8.472;2022-09-09T16:31:41;19.90;99.90
4896;DHT22;2463;49.948;8.472;2022-09-09T16:34:09;19.90;99.90
4896;DHT22;2463;49.948;8.472;2022-09-09T16:36:37;20.00;99.90
4896;DHT22;2463;49.948;8.472;2022-09-09T16:39:07;19.90;99.90
4896;DHT22;2463;49.948;8.472;2022-09-09T16:41:36;20.00;99.90
4896;DHT22;2463;49.948;8.472;2022-09-09T16:44:05;20.10;99.90
4896;DHT22;2463;49.948;8.472;2022-09-09T16:46:34;20.10;99.90
4896;DHT22;2463;49.948;8.472;2022-09-09T16:49:03;20.10;99.90
4896;DHT22;2463;49.948;8.472;2022-09-09T16:51:53;20.10;99.90
4896;DHT22;2463;49.948;8.472;2022-09-09T16:54:19;20.10;99.90
4896;DHT22;2463;49.948;8.472;2022-09-09T16:56:47;20.10;99.90
4896;DHT22;2463;49.948;8.472;2022-09-09T16:59:16;20.00;99.90
4896;DHT22;2463;49.948;8.472;2022-09-09T17:01:45;20.00;99.90
4896;DHT22;2463;49.948;8.472;2022-09-09T17:04:17;20.00;99.90
4896;DHT22;2463;49.948;8.472;2022-09-09T17:06:48;19.90;99.90
4896;DHT22;2463;49.948;8.472;2022-09-09T17:09:16;19.80;99.90
4896;DHT22;2463;49.948;8.472;2022-09-09T17:11:43;19.90;99.90
4896;DHT22;2463;49.948;8.472;2022-09-09T17:14:14;19.70;99.90
4896;DHT22;2463;49.948;8.472;2022-09-09T17:16:40;19.90;99.90
4896;DHT22;2463;49.948;8.472;2022-09-09T17:19:07;19.80;99.90
4896;DHT22;2463;49.948;8.472;2022-09-09T17:21:35;19.90;99.90
4896;DHT22;2463;49.948;8.472;2022-09-09T17:24:20;19.90;99.90
4896;DHT22;2463;49.948;8.472;2022-09-09T17:26:48;19.70;99.90
4896;DHT22;2463;49.948;8.472;2022-09-09T17:29:15;19.60;99.90
4896;DHT22;2463;49.948;8.472;2022-09-09T17:31:43;19.40;99.90
4896;DHT22;2463;49.948;8.472;2022-09-09T17:34:10;19.20;99.90
4896;DHT22;2463;49.948;8.472;2022-09-09T17:36:37;19.00;99.90
4896;DHT22;2463;49.948;8.472;2022-09-09T17:39:05;18.70;99.90
4896;DHT22;2463;49.948;8.472;2022-09-09T17:41:37;18.60;99.90
4896;DHT22;2463;49.948;8.472;2022-09-09T17:44:04;18.50;99.90
4896;DHT22;2463;49.948;8.472;2022-09-09T17:46:38;18.40;99.90
4896;DHT22;2463;49.948;8.472;2022-09-09T17:49:12;18.40;99.90
4896;DHT22;2463;49.948;8.472;2022-09-09T17:51:40;18.40;99.90
4896;DHT22;2463;49.948;8.472;2022-09-09T17:54:16;18.20;99.90
4896;DHT22;2463;49.948;8.472;2022-09-09T17:56:44;18.10;99.90
4896;DHT22;2463;49.948;8.472;2022-09-09T17:59:12;17.90;99.90
4896;DHT22;2463;49.948;8.472;2022-09-09T18:01:42;17.70;99.90
4896;DHT22;2463;49.948;8.472;2022-09-09T18:04:14;17.70;99.90
4896;DHT22;2463;49.948;8.472;2022-09-09T18:06:43;17.60;99.90
4896;DHT22;2463;49.948;8.472;2022-09-09T18:09:19;17.50;99.90
4896;DHT22;2463;49.948;8.472;2022-09-09T18:11:49;17.50;99.90
4896;DHT22;2463;49.948;8.472;2022-09-09T18:14:21;17.50;99.90
4896;DHT22;2463;49.948;8.472;2022-09-09T18:16:48;17.50;99.90